Aeroporto :
LOGIN :

Iscrizione | Disclaimer

   EN    FR    IT 

 










Sommario :    VFR   VFR Marginale   IFR   IFR Intensivo   IFR Molto Intensivo
Visibilità : 
Base nubi : 
>= 8 km
>= 3000ft
5 / 8 km
1000 / 3000 ft
1500m / 5 km
500 / 1000 ft
800 / 1500m
200 / 500 ft
< 800m
< 200 ft
Simboli :   Temporali  Nebbia  Neve Forte  Precipitazioni Forti  Vento > 20 kt
SIGMETs :   Varie  Temporali  Ghiacco  Turbolenza  Onda orograficha  Ceneri Vulcaniche







- Altitudine del aeroporto : 2302 ft
- Carte del aeroporto


LEAB - Albacete

ULTIMO METAR :
  • 181800Z 11009KT 9999 FEW017 11/08 Q1005 NOSIG

METARs OBSOLETI :
  • 181700Z 11008KT 9999 SCT016 SCT030 11/09 Q1005 NOSIG
  • 181600Z 11005KT 9000 -RA FEW015 SCT025 BKN040 11/10 Q1005 NOSIG
  • 181500Z 12006KT 090V150 9999 -RA FEW020 BKN045 12/09 Q1005 NOSIG

TAF TAF LEAB
Valido dal 18 a 18 ore il 19 a 03 ore UTC


181700Z 1818/1903 10009KT 9999 SCT020 BKN035
TEMPO 1818/1822 3000 RA BKN012
Nessun NOTAM noto per questo aeroporto.
2 SIGMETs conosciuti per la FIR Madrid (LECM) :
 
Temporali affogati
LECM SIGMET 9 VALID 181800/182000 LEVA
LECM MADRID FIR/UIR EMBD TS OBS AT 1745Z WI N3751 W00327 - N3549 W00456 - N3546 W002 - N3754 W00132 - N3751 W00327 TOP FL380 MOV NE NC=
Temporali affogati
LECM SIGMET 8 VALID 181600/181800 LEVA
LECM MADRID FIR/UIR EMBD TS OBS AT 1542Z WI N3551 W00552 - N3747 W00501 - N3758 W00136 - N3552 W00201 - N3551 W00552 TOP FL380 MOV NE NC=



MetMap, La meteo Aeronautica in un colpo d'occhio ! - Copyright ORBIFLY Dicembre 2007 - Disclaimer

ORBIFLY MET'MAP TEAM :

Programmazione e sviluppo : Alexandra Zaïnal
Concezione e sviluppo : Baudouin d'Aumeries
Co-Programmazione e sviluppo : Marc-Olivier Méhu
Supporto tecnico e logistico : Manuel Goepfert
Aiuto per la traduzione : Arnaldo La Scala

Contatto : metmap@orbifly.com




FONTI E CREDITI :

   NOAA